createdAt,value
2023-05-05T10:51:55.947Z,3.67
2023-05-05T11:49:28.436Z,5.47
2023-05-05T11:52:01.915Z,7.95
2023-05-05T11:54:29.057Z,9.00
2023-05-05T11:56:57.422Z,7.90
2023-05-05T11:59:24.689Z,9.27
2023-05-05T12:01:51.904Z,6.43
2023-05-05T12:04:19.217Z,9.45
2023-05-05T12:06:46.530Z,10.65
2023-05-05T12:09:20.050Z,6.50
2023-05-05T12:12:30.252Z,7.53
2023-05-05T12:14:57.220Z,17.77
2023-05-05T12:17:24.324Z,6.70
2023-05-05T12:19:53.252Z,6.93
2023-05-05T12:22:35.816Z,7.38
2023-05-05T12:25:05.263Z,5.00
2023-05-05T12:27:32.316Z,6.10
2023-05-05T12:30:18.262Z,4.50
2023-05-05T12:32:45.978Z,6.57
2023-05-05T12:35:16.044Z,5.05
2023-05-05T12:37:44.885Z,8.38
2023-05-05T12:40:47.290Z,10.90
2023-05-05T12:43:29.434Z,4.00
2023-05-05T12:46:05.031Z,4.60
2023-05-05T12:48:32.943Z,7.47
2023-05-05T12:51:25.151Z,4.57
2023-05-05T12:54:19.548Z,5.95
2023-05-05T12:56:51.054Z,4.60
2023-05-05T12:59:30.124Z,5.82
2023-05-05T13:02:03.912Z,10.45
2023-05-05T13:04:40.973Z,5.13
2023-05-05T13:07:20.283Z,7.55
2023-05-05T13:09:54.940Z,8.73
2023-05-05T13:12:34.665Z,5.65
2023-05-05T13:15:02.700Z,9.80
2023-05-05T13:17:30.014Z,9.27
2023-05-05T13:19:58.086Z,11.75
2023-05-05T13:22:47.761Z,11.55
2023-05-05T13:25:16.141Z,8.80
2023-05-05T13:27:43.617Z,8.40
2023-05-05T13:30:11.314Z,10.13
2023-05-05T13:32:38.399Z,9.40
2023-05-05T13:35:06.564Z,8.38
2023-05-05T13:37:33.797Z,6.75
2023-05-05T13:40:01.388Z,10.15
2023-05-05T13:42:28.308Z,11.35
2023-05-05T13:44:55.398Z,7.75
2023-05-05T13:47:22.570Z,6.90
2023-05-05T13:49:50.111Z,6.10
2023-05-05T13:52:53.482Z,3.85
2023-05-05T13:55:21.700Z,3.90
2023-05-05T13:57:48.545Z,3.80
2023-05-05T14:00:16.102Z,3.72
2023-05-05T14:02:42.987Z,3.65
2023-05-05T14:05:10.266Z,7.72
2023-05-05T14:07:37.244Z,3.83
2023-05-05T14:10:04.373Z,5.72
2023-05-05T14:12:31.213Z,6.95
2023-05-05T14:14:58.823Z,3.35
2023-05-05T14:17:25.896Z,4.07
2023-05-05T14:19:52.679Z,2.72
2023-05-05T14:22:24.788Z,4.38
2023-05-05T14:24:51.618Z,3.58
2023-05-05T14:27:18.834Z,2.67
2023-05-05T14:29:46.301Z,1.77
2023-05-05T14:32:13.647Z,7.32
2023-05-05T14:34:43.509Z,1.85
2023-05-05T14:37:12.937Z,1.60
2023-05-05T14:39:39.781Z,2.10
2023-05-05T14:42:06.605Z,6.20
2023-05-05T14:44:33.536Z,3.10
2023-05-05T14:47:00.443Z,5.43
2023-05-05T14:49:27.293Z,5.00
2023-05-05T14:51:54.895Z,3.28
2023-05-05T14:54:28.328Z,1.90
2023-05-05T14:56:56.161Z,2.22
2023-05-05T14:59:22.966Z,2.65
2023-05-05T15:01:49.831Z,2.17
2023-05-05T15:04:16.787Z,4.82
2023-05-05T15:06:43.564Z,1.48
2023-05-05T15:09:10.395Z,1.85
2023-05-05T15:11:37.956Z,4.88
2023-05-05T15:14:04.795Z,5.15
2023-05-05T15:16:33.162Z,1.67
2023-05-05T15:19:01.313Z,1.85
2023-05-05T15:21:33.707Z,1.33
2023-05-05T15:24:00.637Z,2.03
2023-05-05T15:26:27.578Z,1.77
2023-05-05T15:28:54.680Z,2.92
2023-05-05T15:31:26.692Z,1.35
2023-05-05T15:33:53.553Z,3.13
2023-05-05T15:36:22.718Z,1.17
2023-05-05T15:38:49.588Z,3.33
2023-05-05T15:41:16.388Z,1.00
2023-05-05T15:43:43.204Z,1.27
2023-05-05T15:46:10.131Z,2.20
2023-05-05T15:48:37.006Z,1.48
2023-05-05T15:51:14.553Z,1.95
2023-05-05T15:53:41.619Z,1.92
2023-05-05T15:56:09.178Z,1.13
2023-05-05T15:58:36.686Z,1.83
2023-05-05T16:01:08.527Z,2.58
2023-05-05T16:03:35.445Z,1.15
2023-05-05T16:06:02.535Z,2.30
2023-05-05T16:08:30.146Z,0.75
2023-05-05T16:10:57.068Z,1.10
2023-05-05T16:13:23.903Z,1.00
2023-05-05T16:15:50.694Z,1.50
2023-05-05T16:18:17.526Z,2.25
2023-05-05T16:20:44.666Z,1.55
2023-05-05T16:23:11.590Z,1.80
2023-05-05T16:25:38.655Z,1.98
2023-05-05T16:28:05.496Z,1.17
2023-05-05T16:30:32.442Z,0.75
2023-05-05T16:32:59.495Z,2.78
2023-05-05T16:35:26.709Z,1.50
2023-05-05T16:37:54.000Z,1.02
2023-05-05T16:40:21.152Z,1.20
2023-05-05T16:42:47.986Z,2.13
2023-05-05T16:45:14.847Z,1.60
2023-05-05T16:47:41.738Z,3.50
2023-05-05T20:48:21.145Z,2.10
2023-05-05T20:50:48.094Z,2.20
2023-05-05T20:53:18.865Z,5.65
2023-05-05T20:55:46.117Z,2.80
2023-05-05T20:58:12.913Z,3.67
2023-05-05T21:00:45.480Z,3.30
2023-05-05T21:03:12.421Z,5.40
2023-05-05T21:05:42.944Z,5.95
2023-05-05T21:08:09.811Z,4.53
2023-05-05T21:10:42.459Z,4.35
2023-05-05T21:13:09.265Z,4.28
